createdAt,value
2023-04-09T05:01:22.718Z,101033.66
2023-04-09T05:03:49.849Z,101024.00
2023-04-09T05:06:37.556Z,101021.38
2023-04-09T05:09:08.624Z,101031.00
2023-04-09T05:11:43.551Z,101023.97
2023-04-09T05:14:15.983Z,101033.63
2023-04-09T05:16:43.272Z,101031.91
2023-04-09T05:19:10.150Z,101028.38
2023-04-09T05:21:38.170Z,101030.13
2023-04-09T05:24:06.244Z,101031.00
2023-04-09T05:26:34.576Z,101033.63
2023-04-09T05:29:02.548Z,101035.38
2023-04-09T05:31:29.509Z,101036.28
2023-04-09T05:34:04.810Z,101036.28
2023-04-09T05:36:37.200Z,101035.41
2023-04-09T05:39:03.941Z,101037.19
2023-04-09T05:41:32.701Z,101030.19
2023-04-09T05:44:16.196Z,101043.34
2023-04-09T05:46:43.790Z,101048.59
2023-04-09T05:49:12.387Z,101044.22
2023-04-09T05:51:41.409Z,101043.34
2023-04-09T05:54:08.921Z,101037.22
2023-04-09T05:56:38.735Z,101034.63
2023-04-09T05:59:06.210Z,101044.25
2023-04-09T06:01:32.921Z,101039.00
2023-04-09T06:04:00.534Z,101039.91
2023-04-09T06:06:32.727Z,101048.72
2023-04-09T06:09:00.086Z,101039.94
2023-04-09T06:11:27.148Z,101033.84
2023-04-09T06:13:54.497Z,101037.41
2023-04-09T06:16:21.522Z,101044.41
2023-04-09T06:18:51.131Z,101047.97
2023-04-09T06:21:17.788Z,101044.56
2023-04-09T06:23:44.764Z,101041.06
2023-04-09T06:26:12.599Z,101045.53
2023-04-09T06:28:39.222Z,101051.75
2023-04-09T06:31:06.691Z,101050.06
2023-04-09T06:33:33.317Z,101050.09
2023-04-09T06:36:01.539Z,101054.50
2023-04-09T06:38:28.834Z,101051.88
2023-04-09T06:40:57.217Z,101060.66
2023-04-09T06:43:24.384Z,101050.94
2023-04-09T06:45:52.494Z,101050.81
2023-04-09T06:48:19.361Z,101060.34
2023-04-09T06:50:46.048Z,101056.72
2023-04-09T06:53:13.408Z,101053.00
2023-04-09T06:55:40.532Z,101058.94
2023-04-09T06:58:07.936Z,101055.06
2023-04-09T07:00:34.667Z,101042.44
2023-04-09T07:03:03.954Z,101050.03
2023-04-09T07:05:31.284Z,101046.16
2023-04-09T07:07:58.441Z,101047.53
2023-04-09T07:10:25.223Z,101046.16
2023-04-09T07:12:52.396Z,101046.50
2023-04-09T07:15:19.009Z,101042.38
2023-04-09T07:17:46.283Z,101047.19
2023-04-09T07:20:12.976Z,101041.34
2023-04-09T07:22:40.151Z,101046.88
2023-04-09T07:25:07.309Z,101048.00
2023-04-09T07:27:35.435Z,101048.19
2023-04-09T07:30:03.173Z,101056.56
2023-04-09T07:32:30.235Z,101052.59
2023-04-09T07:34:57.540Z,101049.44
2023-04-09T07:37:24.632Z,101049.78
2023-04-09T07:39:53.991Z,101047.56
2023-04-09T07:42:21.128Z,101047.06
2023-04-09T07:44:47.726Z,101048.44
2023-04-09T07:47:15.225Z,101052.28
2023-04-09T07:49:42.084Z,101045.72
2023-04-09T07:52:09.530Z,101048.75
2023-04-09T07:54:36.516Z,101060.78
2023-04-09T07:57:03.835Z,101050.09
2023-04-09T07:59:31.659Z,101057.78
2023-04-09T08:01:59.808Z,101058.38
2023-04-09T08:04:27.365Z,101057.00
2023-04-09T08:06:54.775Z,101055.31
2023-04-09T08:09:21.549Z,101065.69
2023-04-09T08:11:49.924Z,101060.56
2023-04-09T08:14:18.100Z,101053.06
2023-04-09T08:16:47.589Z,101059.44
2023-04-09T08:19:16.593Z,101060.31
2023-04-09T08:21:44.357Z,101049.66
2023-04-09T08:24:11.983Z,101056.16
2023-04-09T08:26:39.923Z,101052.16
2023-04-09T08:29:07.760Z,101048.53
2023-04-09T08:31:36.931Z,101056.97
2023-04-09T08:34:03.824Z,101052.94
2023-04-09T08:36:32.171Z,101053.19
2023-04-09T08:39:00.498Z,101053.47
2023-04-09T08:41:29.713Z,101056.00
2023-04-09T08:43:59.196Z,101056.03
2023-04-09T08:46:27.945Z,101059.91
2023-04-09T08:48:55.093Z,101058.19
2023-04-09T08:51:24.198Z,101059.91
2023-04-09T08:53:59.691Z,101064.25
2023-04-09T08:56:29.425Z,101051.84
2023-04-09T08:58:56.681Z,101052.78
2023-04-09T09:01:31.634Z,101049.19
2023-04-09T09:04:06.641Z,101047.41
2023-04-09T09:06:39.642Z,101056.09
2023-04-09T09:09:26.763Z,101051.28
2023-04-09T09:11:53.947Z,101051.81
2023-04-09T09:14:21.011Z,101056.00
2023-04-09T09:16:57.635Z,101050.34
2023-04-09T09:19:25.033Z,101051.72
2023-04-09T09:21:58.851Z,101054.38
2023-04-09T09:24:26.514Z,101047.91
2023-04-09T09:26:55.942Z,101044.75
2023-04-09T09:29:23.100Z,101044.25
2023-04-09T09:31:52.617Z,101047.00
2023-04-09T09:34:21.290Z,101048.88
2023-04-09T09:36:48.686Z,101037.25
2023-04-09T09:39:18.136Z,101036.75
2023-04-09T09:41:46.460Z,101043.00
2023-04-09T09:44:31.848Z,101042.22
2023-04-09T09:46:58.914Z,101038.69
2023-04-09T09:49:26.212Z,101035.34
2023-04-09T09:51:56.849Z,101034.16
2023-04-09T09:54:26.187Z,101030.16
2023-04-09T09:56:55.770Z,101031.03
2023-04-09T09:59:30.617Z,101037.44
2023-04-09T10:02:03.800Z,101039.28
2023-04-09T10:04:36.202Z,101030.44
2023-04-09T10:07:05.774Z,101029.78
2023-04-09T10:09:36.186Z,101024.28
2023-04-09T10:12:06.907Z,101030.78
2023-04-09T10:14:36.337Z,101026.19
2023-04-09T10:17:04.112Z,101028.03
2023-04-09T10:19:42.220Z,101020.84
2023-04-09T10:22:11.911Z,101020.72
2023-04-09T10:24:39.914Z,101011.72
2023-04-09T10:27:16.396Z,101013.41
2023-04-09T10:29:49.004Z,101007.66
2023-04-09T10:32:26.368Z,101022.72
2023-04-09T10:34:58.061Z,101019.75
2023-04-09T10:37:27.097Z,101013.19
2023-04-09T10:39:54.512Z,101012.09
2023-04-09T10:42:30.266Z,101013.66
2023-04-09T10:45:11.407Z,101013.19
2023-04-09T10:47:41.328Z,101001.63
2023-04-09T10:50:17.664Z,100997.44
2023-04-09T10:52:44.782Z,101011.19
2023-04-09T10:55:51.438Z,101004.69
2023-04-09T10:58:18.388Z,101009.81
2023-04-09T11:00:50.744Z,101009.78
2023-04-09T11:03:20.865Z,100998.47
2023-04-09T11:05:52.920Z,100999.34
2023-04-09T11:08:21.979Z,100988.69
2023-04-09T11:10:52.058Z,100995.63
2023-04-09T11:13:20.952Z,100990.25
2023-04-09T11:15:48.262Z,100988.22
2023-04-09T11:18:19.876Z,100980.28
2023-04-09T11:20:47.425Z,100987.28
2023-04-09T11:23:15.567Z,100976.63
2023-04-09T11:25:42.821Z,100977.50
2023-04-09T11:28:09.460Z,100983.94
2023-04-09T11:30:39.819Z,100974.00
2023-04-09T11:33:09.103Z,100986.41
2023-04-09T11:35:39.409Z,100978.31
2023-04-09T11:38:09.437Z,100974.59
2023-04-09T11:40:37.231Z,100972.50
2023-04-09T11:43:03.905Z,100980.28
2023-04-09T11:45:33.107Z,100980.25
2023-04-09T11:48:00.037Z,100976.03
2023-04-09T11:50:27.459Z,100976.56
2023-04-09T11:52:54.364Z,100973.13
2023-04-09T11:55:29.697Z,100970.81
2023-04-09T11:58:01.201Z,100973.31
2023-04-09T12:00:29.782Z,100972.91
2023-04-09T12:03:03.306Z,100974.91
2023-04-09T12:05:32.532Z,100977.31
2023-04-09T12:08:07.044Z,100970.31
2023-04-09T12:10:38.361Z,100974.56
2023-04-09T12:13:10.382Z,100975.72
2023-04-09T12:15:39.324Z,100977.41
2023-04-09T12:18:09.701Z,100980.91
2023-04-09T12:20:40.217Z,100981.22
2023-04-09T12:23:07.857Z,100979.28
2023-04-09T12:25:36.971Z,100975.28
2023-04-09T12:28:06.442Z,100980.63
2023-04-09T12:30:35.450Z,100975.00
2023-04-09T12:33:04.663Z,100974.53
2023-04-09T12:35:31.778Z,100976.38
2023-04-09T12:37:59.665Z,100973.78
2023-04-09T12:40:26.616Z,100980.84
2023-04-09T12:42:54.520Z,100978.44
2023-04-09T12:45:21.867Z,100974.31
2023-04-09T12:47:49.580Z,100976.16
2023-04-09T12:50:16.529Z,100974.56
2023-04-09T12:52:43.520Z,100972.06
2023-04-09T12:55:11.509Z,100969.56
2023-04-09T12:57:39.921Z,100970.69
2023-04-09T13:00:07.825Z,100968.16
2023-04-09T13:02:35.796Z,100965.53
2023-04-09T13:05:04.287Z,100968.00
2023-04-09T13:07:31.713Z,100964.94
2023-04-09T13:09:58.557Z,100960.97
2023-04-09T13:12:26.122Z,100958.84
2023-04-09T13:14:54.683Z,100956.56
2023-04-09T13:17:22.332Z,100959.00
2023-04-09T13:19:50.174Z,100955.75
2023-04-09T13:22:17.719Z,100954.88
2023-04-09T13:24:44.269Z,100952.00
2023-04-09T13:27:11.540Z,100947.34
2023-04-09T13:29:38.777Z,100940.50
2023-04-09T13:32:07.859Z,100935.53
2023-04-09T13:34:35.234Z,100936.91
2023-04-09T13:37:03.807Z,100939.28
2023-04-09T13:39:30.844Z,100938.28
2023-04-09T13:41:57.778Z,100936.94
2023-04-09T13:44:25.987Z,100926.28
2023-04-09T13:46:53.992Z,100931.09
2023-04-09T13:49:21.029Z,100931.81
2023-04-09T13:51:49.610Z,100917.88
2023-04-09T13:54:16.863Z,100929.34
2023-04-09T13:56:45.031Z,100925.59
2023-04-09T13:59:11.882Z,100919.63
2023-04-09T14:01:39.100Z,100918.31
2023-04-09T14:04:06.052Z,100925.69
2023-04-09T14:06:33.393Z,100914.97
2023-04-09T14:08:59.943Z,100908.00
2023-04-09T14:11:27.208Z,100907.69
2023-04-09T14:13:55.307Z,100909.31
2023-04-09T14:16:22.804Z,100916.03
2023-04-09T14:18:49.386Z,100914.63
2023-04-09T14:21:17.160Z,100916.66
2023-04-09T14:23:43.985Z,100906.47
2023-04-09T14:26:11.541Z,100903.16
2023-04-09T14:28:38.314Z,100902.09
2023-04-09T14:31:05.933Z,100899.78
2023-04-09T14:33:32.486Z,100905.31
2023-04-09T14:35:59.879Z,100898.75
2023-04-09T14:38:26.828Z,100902.09
2023-04-09T14:40:54.303Z,100901.34
2023-04-09T14:43:20.949Z,100897.50
2023-04-09T14:45:49.171Z,100900.97
2023-04-09T14:48:16.027Z,100902.97
2023-04-09T14:50:43.510Z,100902.88
2023-04-09T14:53:10.231Z,100897.38
2023-04-09T14:55:37.343Z,100894.00
2023-04-09T14:58:07.107Z,100896.75
2023-04-09T15:00:34.797Z,100888.94
2023-04-09T15:03:01.571Z,100890.59
2023-04-09T15:05:28.901Z,100887.44
2023-04-09T15:07:55.887Z,100885.22
2023-04-09T15:10:23.233Z,100879.94
2023-04-09T15:12:49.810Z,100874.56
2023-04-09T15:15:17.300Z,100870.03
2023-04-09T15:17:44.229Z,100871.63
2023-04-09T15:20:11.606Z,100875.25
2023-04-09T15:22:38.208Z,100877.34
2023-04-09T15:25:05.787Z,100873.16
2023-04-09T15:27:32.685Z,100879.75
2023-04-09T15:29:59.943Z,100874.41
2023-04-09T15:32:29.889Z,100877.97
2023-04-09T15:34:57.275Z,100884.94
2023-04-09T15:37:23.951Z,100876.03
2023-04-09T15:39:51.350Z,100875.16
2023-04-09T15:42:22.408Z,100879.66
2023-04-09T15:44:50.735Z,100887.88
2023-04-09T15:47:26.423Z,100879.91
2023-04-09T15:49:56.237Z,100877.47
2023-04-09T15:52:22.784Z,100876.00
2023-04-09T15:54:50.041Z,100884.91
2023-04-09T15:57:16.935Z,100880.66
2023-04-09T15:59:44.230Z,100879.81
2023-04-09T16:02:11.102Z,100880.66
2023-04-09T16:04:38.509Z,100878.31
2023-04-09T16:07:05.112Z,100870.06
2023-04-09T16:09:32.603Z,100873.69
2023-04-09T16:11:59.189Z,100875.53
2023-04-09T16:14:27.142Z,100869.63
2023-04-09T16:16:54.000Z,100873.25
2023-04-09T16:19:21.680Z,100877.59
2023-04-09T16:21:49.473Z,100866.16
2023-04-09T16:24:16.790Z,100870.75
2023-04-09T16:26:44.518Z,100864.69
2023-04-09T16:29:12.995Z,100873.09
2023-04-09T16:31:42.061Z,100872.97
2023-04-09T16:34:09.208Z,100867.50
2023-04-09T16:36:37.130Z,100870.13
2023-04-09T16:39:05.549Z,100865.13
2023-04-09T16:41:33.550Z,100868.78
2023-04-09T16:44:02.156Z,100868.16
2023-04-09T16:46:29.066Z,100867.22
2023-04-09T16:48:56.174Z,100870.69
2023-04-09T16:51:22.729Z,100872.44
2023-04-09T16:53:50.342Z,100871.84
2023-04-09T16:56:16.974Z,100859.59
2023-04-09T16:58:44.855Z,100856.97
2023-04-09T17:01:12.017Z,100861.56
2023-04-09T17:03:42.979Z,100864.34
2023-04-09T17:06:09.667Z,100862.66
2023-04-09T17:08:36.809Z,100862.00
2023-04-09T17:11:03.510Z,100861.22
2023-04-09T17:13:32.155Z,100862.00
2023-04-09T17:15:59.344Z,100859.44
2023-04-09T17:18:26.053Z,100849.13
2023-04-09T17:20:53.679Z,100847.09
2023-04-09T17:23:21.666Z,100845.44
2023-04-09T17:25:49.015Z,100847.41
2023-04-09T17:28:16.980Z,100846.59
2023-04-09T17:30:46.100Z,100847.53
2023-04-09T17:33:14.011Z,100849.59
2023-04-09T17:35:42.340Z,100842.59
2023-04-09T17:38:09.083Z,100854.38
2023-04-09T17:40:36.320Z,100846.63
2023-04-09T17:43:03.160Z,100844.25
2023-04-09T17:45:30.065Z,100840.13
2023-04-09T17:47:57.208Z,100838.69
2023-04-09T17:50:24.160Z,100838.97
2023-04-09T17:52:50.875Z,100837.50
2023-04-09T17:55:18.004Z,100844.00
2023-04-09T17:57:44.761Z,100830.09
2023-04-09T18:00:12.379Z,100826.88
2023-04-09T18:02:52.107Z,100827.22
2023-04-09T18:05:19.747Z,100836.41
2023-04-09T18:07:46.367Z,100833.09
2023-04-09T18:10:13.717Z,100830.69
2023-04-09T18:12:40.329Z,100830.06
2023-04-09T18:15:07.654Z,100829.53
2023-04-09T18:17:34.268Z,100836.88
2023-04-09T18:20:01.745Z,100835.38
2023-04-09T18:22:28.352Z,100829.47
2023-04-09T18:24:55.779Z,100832.41
2023-04-09T18:27:22.408Z,100827.38
2023-04-09T18:29:49.705Z,100828.56
2023-04-09T18:32:19.430Z,100830.59
2023-04-09T18:34:48.419Z,100829.97
2023-04-09T18:37:15.750Z,100837.38
2023-04-09T18:39:42.969Z,100845.53
2023-04-09T18:42:10.139Z,100850.19
2023-04-09T18:44:37.880Z,100847.78
2023-04-09T18:47:06.340Z,100851.53
2023-04-09T18:49:33.834Z,100842.00
2023-04-09T18:52:01.440Z,100849.28
2023-04-09T18:54:28.779Z,100840.69
2023-04-09T18:56:57.669Z,100854.13
2023-04-09T18:59:24.359Z,100850.78
2023-04-09T19:01:51.323Z,100847.41
2023-04-09T19:04:17.974Z,100849.41
2023-04-09T19:06:46.807Z,100853.09
2023-04-09T19:09:13.380Z,100859.41
2023-04-09T19:11:40.704Z,100855.97
2023-04-09T19:14:07.436Z,100849.97
2023-04-09T19:16:34.745Z,100853.63
2023-04-09T19:19:01.984Z,100862.63
2023-04-09T19:21:29.376Z,100860.13
2023-04-09T19:23:56.301Z,100867.28
2023-04-09T19:26:23.417Z,100865.63
2023-04-09T19:28:49.999Z,100864.00
2023-04-09T19:31:17.310Z,100875.59
2023-04-09T19:33:43.976Z,100871.28
2023-04-09T19:36:13.175Z,100873.19
2023-04-09T19:38:40.402Z,100872.38
2023-04-09T19:41:07.682Z,100873.34
2023-04-09T19:43:34.402Z,100873.41
2023-04-09T19:46:06.926Z,100881.47
2023-04-09T19:48:33.505Z,100882.41
2023-04-09T19:51:01.053Z,100880.72
2023-04-09T19:53:27.922Z,100880.78
2023-04-09T19:55:55.135Z,100875.56
2023-04-09T19:58:22.181Z,100872.09
2023-04-09T20:00:50.142Z,100878.38
2023-04-09T20:03:17.095Z,100874.03
2023-04-09T20:05:44.084Z,100873.22
2023-04-09T20:08:14.353Z,100867.97
2023-04-09T20:10:45.184Z,100866.28
2023-04-09T20:13:11.788Z,100872.53
2023-04-09T20:15:39.553Z,100865.56
2023-04-09T20:18:06.204Z,100867.34
2023-04-09T20:20:33.617Z,100864.72
2023-04-09T20:23:00.795Z,100858.63
2023-04-09T20:25:34.598Z,100862.19
2023-04-09T20:28:02.392Z,100864.03
